Wyoming, Illinois
Current Conditions -  °F | °C
As of 2:15 PM on Monday 22 Dec 2014 (Local Time) from KC75 Reporting Station
Light Rain Light Rain  
Wind Chill: 32°   Ceiling: 800
Heat Index: 39°   Visibility: 5mi
Dew Point: 37°   Wind: 10mph
Humidity: 93%   Direction: 140°SE
Pressure: 29.62"   Gusts: NA
Location:  41.06°N, 89.77°W
Report Text: KC75 222015Z AUTO 14009KT 5SM -RA OVC008 04/03 A2962 RMK AO2 P0001 T00380028
Loading
Personal Weather Stations






























Interactive Weather Map New forecast layout! Learn more

10-Day Weather Forecast

Advertisements
Track Severe Weather on mobile